createdAt,value
2023-04-23T00:01:09.177Z,18.60
2023-04-23T00:03:41.244Z,18.60
2023-04-23T00:06:10.272Z,18.50
2023-04-23T00:08:41.819Z,18.60
2023-04-23T00:11:09.867Z,18.60
2023-04-23T00:13:37.305Z,18.60
2023-04-23T00:16:04.800Z,18.60
2023-04-23T00:18:31.847Z,18.60
2023-04-23T00:20:58.604Z,18.60
2023-04-23T00:23:25.314Z,18.60
2023-04-23T00:25:52.039Z,18.50
2023-04-23T00:28:20.777Z,18.50
2023-04-23T00:30:48.657Z,18.40
2023-04-23T00:33:15.602Z,18.40
2023-04-23T00:35:42.247Z,18.30
2023-04-23T00:38:09.138Z,18.20
2023-04-23T00:40:36.159Z,18.20
2023-04-23T00:43:03.277Z,18.20
2023-04-23T00:45:30.007Z,18.20
2023-04-23T00:47:58.370Z,18.20
2023-04-23T00:50:25.226Z,18.10
2023-04-23T00:52:52.146Z,18.10
2023-04-23T00:55:21.125Z,18.10
2023-04-23T00:57:48.525Z,18.10
2023-04-23T01:00:15.564Z,18.10
2023-04-23T01:02:44.417Z,18.10
2023-04-23T01:05:14.172Z,18.10
2023-04-23T01:07:41.641Z,18.00
2023-04-23T01:10:09.300Z,18.10
2023-04-23T01:12:36.239Z,18.10
2023-04-23T01:15:04.493Z,18.00
2023-04-23T01:17:32.186Z,18.00
2023-04-23T01:19:58.800Z,18.00
2023-04-23T01:22:25.687Z,18.00
2023-04-23T01:24:52.577Z,18.00
2023-04-23T01:27:20.296Z,18.00
2023-04-23T01:29:48.038Z,18.00
2023-04-23T01:32:15.894Z,18.00
2023-04-23T01:34:46.335Z,18.00
2023-04-23T01:37:13.688Z,18.00
2023-04-23T01:39:40.416Z,18.00
2023-04-23T01:42:07.402Z,18.00
2023-04-23T01:44:34.314Z,18.00
2023-04-23T01:47:01.075Z,17.90
2023-04-23T01:49:28.050Z,17.90
2023-04-23T01:51:54.654Z,17.80
2023-04-23T01:54:21.465Z,17.80
2023-04-23T01:56:48.177Z,17.70
2023-04-23T01:59:15.006Z,17.70
2023-04-23T02:01:45.713Z,17.70
2023-04-23T02:04:14.131Z,17.60
2023-04-23T02:06:42.838Z,17.50
2023-04-23T02:09:09.552Z,17.50
2023-04-23T02:11:36.323Z,17.50
2023-04-23T02:14:03.861Z,17.50
2023-04-23T02:16:31.111Z,17.40
2023-04-23T02:18:58.188Z,17.40
2023-04-23T02:21:25.305Z,17.30
2023-04-23T02:23:52.407Z,17.40
2023-04-23T02:26:19.245Z,17.30
2023-04-23T02:28:46.488Z,17.30
2023-04-23T02:31:13.369Z,17.30
2023-04-23T02:33:42.522Z,17.20
2023-04-23T02:36:12.346Z,17.10
2023-04-23T02:38:42.353Z,17.10
2023-04-23T02:41:09.043Z,17.00
2023-04-23T02:43:35.761Z,17.00
2023-04-23T02:46:08.525Z,17.00
2023-04-23T02:48:40.356Z,17.00
2023-04-23T02:51:10.118Z,16.90
2023-04-23T02:53:37.108Z,16.90
2023-04-23T02:56:03.835Z,16.90
2023-04-23T02:58:31.344Z,16.90
2023-04-23T03:00:58.928Z,16.90
2023-04-23T03:03:32.521Z,16.90
2023-04-23T03:06:02.685Z,16.90
2023-04-23T03:08:29.470Z,16.80
2023-04-23T03:10:56.391Z,16.80
2023-04-23T03:13:23.060Z,16.80
2023-04-23T03:15:51.115Z,16.80
2023-04-23T03:18:17.883Z,16.70
2023-04-23T03:20:44.582Z,16.70
2023-04-23T03:23:11.329Z,16.70
2023-04-23T03:25:38.062Z,16.70
2023-04-23T03:28:04.898Z,16.70
2023-04-23T03:30:31.832Z,16.60
2023-04-23T03:32:59.214Z,16.60
2023-04-23T03:35:26.438Z,16.60
2023-04-23T03:37:53.125Z,16.60
2023-04-23T03:40:20.646Z,16.60
2023-04-23T03:42:47.954Z,16.60
2023-04-23T03:45:16.666Z,16.60
2023-04-23T03:47:43.793Z,16.70
2023-04-23T03:50:12.866Z,16.60
2023-04-23T03:52:39.679Z,16.70
2023-04-23T03:55:07.620Z,16.70
2023-04-23T03:57:34.412Z,16.70
2023-04-23T04:00:01.076Z,16.70
2023-04-23T04:02:28.374Z,16.80
2023-04-23T04:04:55.476Z,16.80
2023-04-23T04:07:22.488Z,16.80
2023-04-23T04:09:49.320Z,16.90
2023-04-23T04:12:16.489Z,16.90
2023-04-23T04:14:43.615Z,17.00
2023-04-23T04:17:10.742Z,17.00
2023-04-23T04:19:37.416Z,17.00
2023-04-23T04:22:04.121Z,17.10
2023-04-23T04:24:32.495Z,17.00
2023-04-23T04:27:02.470Z,17.00
2023-04-23T04:29:29.095Z,17.10
2023-04-23T04:31:56.448Z,17.10
2023-04-23T04:34:23.446Z,17.10
2023-04-23T04:36:54.186Z,17.10
2023-04-23T04:39:21.049Z,17.10
2023-04-23T04:41:48.515Z,17.20
2023-04-23T04:44:16.502Z,17.20
2023-04-23T04:46:43.421Z,17.20
2023-04-23T04:49:11.108Z,17.30
2023-04-23T04:51:38.982Z,17.30
2023-04-23T04:54:06.547Z,17.30
2023-04-23T04:56:34.608Z,17.30
2023-04-23T04:59:01.881Z,17.20
2023-04-23T05:01:29.745Z,17.20
2023-04-23T05:03:57.631Z,17.30
2023-04-23T05:06:24.523Z,17.40
2023-04-23T05:08:52.017Z,17.40
2023-04-23T05:11:21.323Z,17.50
2023-04-23T05:13:48.331Z,17.60
2023-04-23T05:16:15.330Z,17.60
2023-04-23T05:18:42.412Z,17.70
2023-04-23T05:21:09.316Z,17.70
2023-04-23T05:23:36.671Z,17.80
2023-04-23T05:26:03.718Z,17.80
2023-04-23T05:28:31.120Z,17.90
2023-04-23T05:30:58.501Z,18.00
2023-04-23T05:33:30.635Z,18.00
2023-04-23T05:36:00.307Z,18.10
2023-04-23T05:38:27.145Z,18.10
2023-04-23T05:40:53.818Z,18.10
2023-04-23T05:43:20.439Z,18.20
2023-04-23T05:45:47.136Z,18.20
2023-04-23T05:48:14.032Z,18.20
2023-04-23T05:50:40.820Z,18.20
2023-04-23T05:53:07.468Z,18.30
2023-04-23T05:55:34.129Z,18.30
2023-04-23T05:58:00.844Z,18.30
2023-04-23T06:00:27.691Z,18.40
2023-04-23T06:02:54.450Z,18.30
2023-04-23T06:05:21.476Z,18.30
2023-04-23T06:07:48.237Z,18.40
2023-04-23T06:10:15.061Z,18.40
2023-04-23T06:12:42.265Z,18.40
2023-04-23T06:15:09.931Z,18.50
2023-04-23T06:17:37.129Z,18.60
2023-04-23T06:20:05.175Z,18.60
2023-04-23T06:22:32.562Z,18.70
2023-04-23T06:24:59.362Z,18.80
2023-04-23T06:27:27.168Z,18.80
2023-04-23T06:29:54.011Z,18.90
2023-04-23T06:32:22.145Z,19.00
2023-04-23T06:35:00.145Z,19.10
2023-04-23T06:37:29.784Z,19.10
2023-04-23T06:39:56.683Z,19.20
2023-04-23T06:42:23.580Z,19.30
2023-04-23T06:44:51.870Z,19.40
2023-04-23T06:47:19.649Z,19.50
2023-04-23T06:49:46.689Z,19.60
2023-04-23T06:52:13.544Z,19.70
2023-04-23T06:57:22.368Z,19.80
2023-04-23T06:59:49.134Z,19.90
2023-04-23T07:02:16.136Z,20.00
2023-04-23T07:04:43.353Z,20.00
2023-04-23T07:07:10.541Z,20.00
2023-04-23T07:09:37.181Z,20.10
2023-04-23T07:12:04.074Z,20.10
2023-04-23T07:14:30.710Z,20.00
2023-04-23T07:16:57.995Z,20.00
2023-04-23T07:19:24.878Z,20.00
2023-04-23T07:21:53.391Z,20.00
2023-04-23T07:24:20.102Z,20.10
2023-04-23T07:26:46.837Z,20.10
2023-04-23T07:29:14.375Z,20.10
2023-04-23T07:31:42.026Z,20.10
2023-04-23T07:34:09.881Z,20.00
2023-04-23T07:36:36.926Z,20.00
2023-04-23T07:39:05.235Z,19.90
2023-04-23T07:41:32.730Z,19.90
2023-04-23T07:43:59.492Z,19.90
2023-04-23T07:46:26.330Z,19.90
2023-04-23T07:48:53.569Z,19.90
2023-04-23T07:51:22.557Z,19.90
2023-04-23T07:53:51.253Z,19.90
2023-04-23T07:56:18.019Z,19.90
2023-04-23T07:58:44.670Z,19.80
2023-04-23T08:01:11.568Z,19.80
2023-04-23T08:03:38.544Z,19.80
2023-04-23T08:06:05.603Z,19.90
2023-04-23T08:08:32.438Z,19.90
2023-04-23T08:10:59.589Z,20.00
2023-04-23T08:13:26.336Z,20.00
2023-04-23T08:15:53.112Z,20.10
2023-04-23T08:18:19.789Z,20.20
2023-04-23T08:20:46.506Z,20.20
2023-04-23T08:23:13.299Z,20.30
2023-04-23T08:25:39.948Z,20.30
2023-04-23T08:28:06.864Z,20.40
2023-04-23T08:30:33.672Z,20.30
2023-04-23T08:33:00.421Z,20.40
2023-04-23T08:35:27.083Z,20.40
2023-04-23T08:37:53.838Z,20.50
2023-04-23T08:40:20.554Z,20.60
2023-04-23T08:42:57.866Z,20.60
2023-04-23T08:45:26.542Z,20.80
2023-04-23T08:47:56.831Z,20.80
2023-04-23T08:50:25.514Z,20.90
2023-04-23T08:52:57.133Z,20.90
2023-04-23T08:55:25.028Z,20.90
2023-04-23T08:57:51.996Z,20.90
2023-04-23T09:00:23.092Z,20.90
2023-04-23T09:02:50.615Z,20.80
2023-04-23T09:05:17.627Z,20.80
2023-04-23T09:07:44.677Z,20.80
2023-04-23T09:10:12.856Z,20.80
2023-04-23T09:12:42.718Z,20.80
2023-04-23T09:15:13.651Z,20.70
2023-04-23T09:17:42.348Z,20.70
2023-04-23T09:20:09.740Z,20.70
2023-04-23T09:22:47.978Z,20.70
2023-04-23T09:25:19.487Z,20.80
2023-04-23T09:27:47.562Z,20.80
2023-04-23T09:30:15.112Z,20.90
2023-04-23T09:32:43.931Z,21.00
2023-04-23T09:35:20.078Z,21.10
2023-04-23T09:37:49.457Z,21.10
2023-04-23T09:40:18.571Z,21.10
2023-04-23T09:42:50.107Z,21.10
2023-04-23T09:45:17.243Z,21.00
2023-04-23T09:47:52.625Z,21.00
2023-04-23T09:50:20.628Z,21.00
2023-04-23T09:52:55.451Z,21.00
2023-04-23T09:55:30.944Z,21.00
2023-04-23T09:57:58.739Z,21.00
2023-04-23T10:00:29.510Z,20.90
2023-04-23T10:02:56.369Z,20.90
2023-04-23T10:05:27.294Z,20.90
2023-04-23T10:07:58.505Z,20.80
2023-04-23T10:10:25.744Z,20.90
2023-04-23T10:12:55.861Z,20.90
2023-04-23T10:15:25.431Z,20.80
2023-04-23T10:17:52.624Z,20.90
2023-04-23T10:20:21.785Z,20.80
2023-04-23T10:22:49.239Z,20.90
2023-04-23T10:25:17.984Z,20.90
2023-04-23T10:27:52.984Z,20.90
2023-04-23T10:30:20.964Z,20.90
2023-04-23T10:32:49.480Z,20.90
2023-04-23T10:35:16.626Z,20.90
2023-04-23T10:37:49.240Z,20.90
2023-04-23T10:40:22.030Z,20.90
2023-04-23T10:42:49.588Z,20.90
2023-04-23T10:47:48.419Z,20.90
2023-04-23T10:50:23.757Z,20.90
2023-04-23T10:52:54.478Z,20.90
2023-04-23T10:55:24.335Z,20.80
2023-04-23T10:58:08.548Z,20.90
2023-04-23T11:00:41.362Z,21.00
2023-04-23T11:03:42.947Z,21.10
2023-04-23T11:06:15.835Z,21.10
2023-04-23T11:08:57.021Z,21.20
2023-04-23T11:11:41.181Z,21.30
2023-04-23T11:14:14.508Z,21.30
2023-04-23T11:16:41.591Z,21.30
2023-04-23T11:19:12.479Z,21.30
2023-04-23T11:22:18.585Z,21.30
2023-04-23T11:24:48.269Z,21.30
2023-04-23T11:27:18.628Z,21.20
2023-04-23T11:29:46.754Z,21.20
2023-04-23T11:32:18.212Z,21.10
2023-04-23T11:34:46.435Z,21.10
2023-04-23T11:37:15.613Z,21.10
2023-04-23T11:39:44.526Z,21.00
2023-04-23T11:42:15.610Z,21.00
2023-04-23T11:44:44.802Z,21.10
2023-04-23T11:47:13.926Z,21.20
2023-04-23T11:49:45.700Z,21.20
2023-04-23T11:52:14.306Z,21.40
2023-04-23T11:54:49.043Z,21.70
2023-04-23T11:57:15.719Z,21.90
2023-04-23T11:59:42.948Z,22.20
2023-04-23T12:02:09.907Z,22.50
2023-04-23T12:04:38.876Z,22.60
2023-04-23T12:07:16.073Z,22.60
2023-04-23T12:09:50.007Z,22.60
2023-04-23T12:12:16.790Z,22.50
2023-04-23T12:14:44.242Z,22.40
2023-04-23T12:17:12.063Z,22.30
2023-04-23T12:19:40.565Z,22.20
2023-04-23T12:22:08.666Z,22.00
2023-04-23T12:24:52.139Z,21.90
2023-04-23T12:27:21.544Z,21.80
2023-04-23T12:29:48.508Z,21.60
2023-04-23T12:32:15.880Z,21.50
2023-04-23T12:34:57.541Z,21.40
2023-04-23T12:37:27.197Z,21.30
2023-04-23T12:39:56.879Z,21.30
2023-04-23T12:42:24.097Z,21.30
2023-04-23T12:44:56.113Z,21.30
2023-04-23T12:47:22.882Z,21.50
2023-04-23T12:49:53.370Z,21.70
2023-04-23T12:52:21.031Z,22.10
2023-04-23T12:54:52.033Z,22.50
2023-04-23T12:57:23.336Z,22.80
2023-04-23T12:59:50.270Z,23.30
2023-04-23T13:02:17.480Z,23.70
2023-04-23T13:04:44.374Z,23.90
2023-04-23T13:07:11.111Z,24.20
2023-04-23T13:09:37.794Z,24.60
2023-04-23T13:12:04.973Z,25.10
2023-04-23T13:14:46.013Z,25.60
2023-04-23T13:17:12.900Z,26.10
2023-04-23T13:19:40.617Z,26.50
2023-04-23T13:22:07.478Z,26.90
2023-04-23T13:24:34.247Z,27.20
2023-04-23T13:27:01.822Z,27.20
2023-04-23T13:29:29.011Z,27.10
2023-04-23T13:31:57.149Z,26.90
2023-04-23T13:34:24.123Z,26.70
2023-04-23T13:36:51.056Z,26.40
2023-04-23T13:39:18.225Z,26.20
2023-04-23T13:41:47.857Z,26.00
2023-04-23T13:44:18.131Z,25.80
2023-04-23T13:46:44.863Z,25.70
2023-04-23T13:49:11.661Z,25.90
2023-04-23T13:51:38.833Z,26.00
2023-04-23T13:54:06.599Z,25.90
2023-04-23T13:56:33.762Z,25.90
2023-04-23T14:01:32.189Z,25.70
2023-04-23T14:03:58.967Z,25.60
2023-04-23T14:06:25.925Z,25.40
2023-04-23T14:08:52.811Z,25.10
2023-04-23T14:11:19.642Z,24.90
2023-04-23T14:13:46.592Z,24.80
2023-04-23T14:16:13.353Z,24.60
2023-04-23T14:18:40.326Z,24.50
2023-04-23T14:21:07.916Z,24.40
2023-04-23T14:23:55.832Z,24.40
2023-04-23T14:26:44.867Z,24.40
2023-04-23T14:29:41.369Z,24.20
2023-04-23T14:32:08.702Z,24.10
2023-04-23T14:34:36.054Z,24.00
2023-04-23T14:37:03.617Z,24.00
2023-04-23T14:39:30.845Z,23.90
2023-04-23T14:41:57.561Z,23.80
2023-04-23T14:44:26.542Z,23.70
2023-04-23T14:46:53.546Z,23.60
2023-04-23T14:49:23.015Z,23.50
2023-04-23T14:51:54.250Z,23.40
2023-04-23T14:54:22.179Z,23.40
2023-04-23T14:56:49.570Z,23.40
2023-04-23T14:59:18.962Z,23.30
2023-04-23T15:01:45.740Z,23.30
2023-04-23T15:04:12.852Z,23.30
2023-04-23T15:06:40.559Z,23.30
2023-04-23T15:09:07.458Z,23.30
2023-04-23T15:11:34.385Z,23.30
2023-04-23T15:14:21.278Z,23.30
2023-04-23T15:16:49.700Z,23.20
2023-04-23T15:19:20.444Z,23.20
2023-04-23T15:21:47.648Z,23.20
2023-04-23T15:24:15.262Z,23.10
2023-04-23T15:26:42.856Z,23.10
2023-04-23T15:29:10.235Z,23.10
2023-04-23T15:31:38.125Z,23.10
2023-04-23T15:34:07.559Z,23.10
2023-04-23T15:36:35.725Z,23.10
2023-04-23T15:39:02.540Z,23.20
2023-04-23T15:41:29.282Z,23.20
2023-04-23T15:43:56.616Z,23.20
2023-04-23T15:46:23.619Z,23.20
2023-04-23T15:48:50.460Z,23.20
2023-04-23T15:51:17.870Z,23.20
2023-04-23T15:53:44.638Z,23.10
2023-04-23T15:56:11.527Z,23.10
2023-04-23T15:58:38.193Z,23.20
2023-04-23T16:01:07.301Z,23.50
2023-04-23T16:03:39.650Z,23.90
2023-04-23T16:06:14.786Z,24.10
2023-04-23T16:08:41.943Z,24.20
2023-04-23T16:11:09.017Z,24.30
2023-04-23T16:13:36.193Z,24.40
2023-04-23T16:16:02.952Z,24.40
2023-04-23T16:18:29.787Z,24.60
2023-04-23T16:21:01.670Z,24.70
2023-04-23T16:23:28.528Z,25.00
2023-04-23T16:25:57.275Z,25.10
2023-04-23T16:28:24.570Z,25.20
2023-04-23T16:30:51.471Z,25.30
2023-04-23T16:33:18.536Z,25.40
2023-04-23T16:35:45.247Z,25.50
2023-04-23T16:38:13.112Z,25.40
2023-04-23T16:40:39.914Z,25.40
2023-04-23T16:43:06.907Z,25.40
2023-04-23T16:45:35.039Z,25.40
2023-04-23T16:48:01.736Z,25.40
2023-04-23T16:50:28.590Z,25.40
2023-04-23T16:52:55.908Z,25.40
2023-04-23T16:55:22.907Z,25.50
2023-04-23T16:57:49.711Z,25.50
2023-04-23T17:00:17.978Z,25.60
2023-04-23T17:02:44.858Z,25.60
2023-04-23T17:05:11.646Z,25.60
2023-04-23T17:07:40.792Z,25.60
2023-04-23T17:10:08.406Z,25.60
2023-04-23T17:12:35.159Z,25.50
2023-04-23T17:15:01.783Z,25.40
2023-04-23T17:17:28.512Z,25.40
2023-04-23T17:19:55.652Z,25.30
2023-04-23T17:22:22.372Z,25.20
2023-04-23T17:24:49.112Z,25.00
2023-04-23T17:27:15.924Z,24.90
2023-04-23T17:29:42.698Z,24.70
2023-04-23T17:32:09.472Z,24.50
2023-04-23T17:34:36.365Z,24.20
2023-04-23T17:37:02.957Z,23.90
2023-04-23T17:39:29.728Z,23.80
2023-04-23T17:41:57.599Z,23.50
2023-04-23T17:44:24.454Z,23.30
2023-04-23T17:46:52.334Z,23.10
2023-04-23T17:49:20.120Z,22.90
2023-04-23T17:51:46.935Z,22.70
2023-04-23T17:54:13.692Z,22.40
2023-04-23T17:56:40.571Z,22.20
2023-04-23T17:59:07.321Z,22.00
2023-04-23T18:02:16.793Z,21.80
2023-04-23T18:05:15.002Z,21.60
2023-04-23T18:07:52.722Z,21.30
2023-04-23T18:10:49.764Z,21.20
2023-04-23T18:13:30.232Z,21.00
2023-04-23T18:16:14.341Z,20.80
2023-04-23T18:18:49.683Z,20.70
2023-04-23T18:21:18.040Z,20.50
2023-04-23T18:23:49.877Z,20.40
2023-04-23T18:26:21.254Z,20.30
2023-04-23T18:28:55.235Z,20.20
2023-04-23T18:31:26.276Z,20.10
2023-04-23T18:34:00.199Z,19.90
2023-04-23T18:36:35.766Z,19.80
2023-04-23T18:39:04.949Z,19.70
2023-04-23T18:41:32.943Z,19.60
2023-04-23T18:44:05.560Z,19.50
2023-04-23T18:46:35.402Z,19.40
2023-04-23T18:49:08.788Z,19.30
2023-04-23T18:51:44.423Z,19.30
2023-04-23T18:54:15.051Z,19.20
2023-04-23T18:56:42.118Z,19.20
2023-04-23T18:59:12.899Z,19.10
2023-04-23T19:01:52.343Z,19.10
2023-04-23T19:04:19.685Z,19.10
2023-04-23T19:06:46.648Z,19.00
2023-04-23T19:09:13.594Z,19.00
2023-04-23T19:11:45.093Z,18.90
2023-04-23T19:14:11.903Z,18.90
2023-04-23T19:16:42.698Z,18.90
2023-04-23T19:19:09.369Z,18.90
2023-04-23T19:21:36.161Z,18.90
2023-04-23T19:24:05.930Z,18.80
2023-04-23T19:26:33.081Z,18.80
2023-04-23T19:29:07.899Z,18.80
2023-04-23T19:31:35.071Z,18.80
2023-04-23T19:34:02.428Z,18.70
2023-04-23T19:36:32.852Z,18.70
2023-04-23T19:39:10.939Z,18.60
2023-04-23T19:41:37.774Z,18.60
2023-04-23T19:44:04.641Z,18.60
2023-04-23T19:46:44.517Z,18.50
2023-04-23T19:49:11.706Z,18.50
2023-04-23T19:51:42.363Z,18.50
2023-04-23T19:54:12.040Z,18.40
2023-04-23T19:56:39.154Z,18.40
2023-04-23T19:59:09.734Z,18.40
2023-04-23T20:01:36.428Z,18.30
2023-04-23T20:04:07.390Z,18.30
2023-04-23T20:06:34.813Z,18.20
2023-04-23T20:09:07.323Z,18.20
2023-04-23T20:11:37.748Z,18.10
2023-04-23T20:14:08.511Z,18.10
2023-04-23T20:16:36.041Z,18.10
2023-04-23T20:19:06.179Z,18.00
2023-04-23T20:21:32.903Z,17.90
2023-04-23T20:24:02.585Z,17.90
2023-04-23T20:26:29.672Z,17.90
2023-04-23T20:28:59.873Z,17.80
2023-04-23T20:31:26.907Z,17.80
2023-04-23T20:33:53.801Z,17.80
2023-04-23T20:36:31.574Z,17.70
2023-04-23T20:38:59.711Z,17.70
2023-04-23T20:41:29.219Z,17.70
2023-04-23T20:43:57.015Z,17.70
2023-04-23T20:46:24.565Z,17.70
2023-04-23T20:48:53.807Z,17.70
2023-04-23T20:51:21.006Z,17.70
2023-04-23T20:53:48.039Z,17.70
2023-04-23T20:56:18.433Z,17.70
2023-04-23T20:58:47.480Z,17.60
2023-04-23T21:01:14.318Z,17.60
2023-04-23T21:03:41.396Z,17.60
2023-04-23T21:06:09.701Z,17.60
2023-04-23T21:08:39.038Z,17.60
2023-04-23T21:11:11.254Z,17.60
2023-04-23T21:13:38.248Z,17.60
2023-04-23T21:16:05.245Z,17.50
2023-04-23T21:18:32.112Z,17.50
2023-04-23T21:20:58.826Z,17.40
2023-04-23T21:23:25.749Z,17.40
2023-04-23T21:25:52.484Z,17.40
2023-04-23T21:28:19.403Z,17.30
2023-04-23T21:30:49.087Z,17.30
2023-04-23T21:33:16.780Z,17.30
2023-04-23T21:35:44.460Z,17.20
2023-04-23T21:38:11.376Z,17.20
2023-04-23T21:40:39.047Z,17.20
2023-04-23T21:43:06.540Z,17.10
2023-04-23T21:45:34.020Z,17.10
2023-04-23T21:48:01.030Z,17.00
2023-04-23T21:50:29.682Z,17.00
2023-04-23T21:52:58.556Z,17.00
2023-04-23T21:55:31.282Z,16.90
2023-04-23T21:58:09.861Z,16.90
2023-04-23T22:00:44.426Z,16.80
2023-04-23T22:03:12.003Z,16.80
2023-04-23T22:05:40.349Z,16.80
2023-04-23T22:08:07.555Z,16.80
2023-04-23T22:10:34.552Z,16.70
2023-04-23T22:13:01.327Z,16.70
2023-04-23T22:15:29.236Z,16.70
2023-04-23T22:18:00.482Z,16.70
2023-04-23T22:20:27.211Z,16.70
2023-04-23T22:22:53.911Z,16.60
2023-04-23T22:25:20.657Z,16.60
2023-04-23T22:27:47.528Z,16.60
2023-04-23T22:30:14.442Z,16.60
2023-04-23T22:32:41.308Z,16.60
2023-04-23T22:35:16.089Z,16.50
2023-04-23T22:37:42.853Z,16.50
2023-04-23T22:40:10.427Z,16.50
2023-04-23T22:42:37.638Z,16.50
2023-04-23T22:45:04.871Z,16.50
2023-04-23T22:47:31.938Z,16.50
2023-04-23T22:49:59.129Z,16.50
2023-04-23T22:52:26.141Z,16.40
2023-04-23T22:54:54.843Z,16.40
2023-04-23T22:57:21.729Z,16.40
2023-04-23T22:59:48.569Z,16.40
2023-04-23T23:02:15.528Z,16.40
2023-04-23T23:04:42.360Z,16.30
2023-04-23T23:07:09.525Z,16.30
2023-04-23T23:09:36.261Z,16.30
2023-04-23T23:12:04.279Z,16.30
2023-04-23T23:14:31.923Z,16.40
2023-04-23T23:16:58.944Z,16.30
2023-04-23T23:19:27.238Z,16.30
2023-04-23T23:21:54.011Z,16.30
2023-04-23T23:24:22.118Z,16.40
2023-04-23T23:26:49.276Z,16.30
2023-04-23T23:29:16.238Z,16.30
2023-04-23T23:31:43.148Z,16.30
2023-04-23T23:34:09.858Z,16.40
2023-04-23T23:36:36.616Z,16.40
2023-04-23T23:39:04.452Z,16.40
2023-04-23T23:41:31.160Z,16.40
2023-04-23T23:43:57.790Z,16.40
2023-04-23T23:46:25.502Z,16.40
2023-04-23T23:48:52.326Z,16.40
2023-04-23T23:51:19.057Z,16.40
2023-04-23T23:53:45.840Z,16.40
2023-04-23T23:56:12.478Z,16.40
2023-04-23T23:58:39.244Z,16.40
